ADDS METAR Data INFO
IDs: Format: Raw Decoded Include TAF

Data at: 0212 UTC 14 Dec 2017

KAJZ 140155Z AUTO 00000KT 10SM SCT090 OVC110 05/M12 A3002 RMK AO2 T00511116
KAJZ 140135Z AUTO 06005KT 10SM OVC090 06/M12 A3002 RMK AO2 T00551116
KAJZ 140115Z AUTO 01003KT 10SM BKN100 OVC120 05/M12 A3002 RMK AO2 T00521116
KAJZ 140055Z AUTO 00000KT 10SM SCT110 06/M12 A3002 RMK AO2 T00571116
KAJZ 140035Z AUTO 08005KT 10SM SCT120 06/M12 A3002 RMK AO2 T00601117
KAJZ 140015Z AUTO 00000KT 10SM OVC120 07/M11 A3003 RMK AO2 T00651115
KAJZ 132355Z AUTO 21004KT 10SM OVC120 07/M11 A3003 RMK AO2 T00711112 10096 20036
KAJZ 132335Z AUTO 22004KT 10SM OVC120 08/M11 A3004 RMK AO2 T00761112
KAJZ 132315Z AUTO 20005KT 10SM OVC120 08/M11 A3005 RMK AO2 T00841112
KAJZ 132255Z AUTO 23004KT 10SM OVC120 09/M11 A3005 RMK AO2 T00901112
KAJZ 132235Z AUTO 23005KT 10SM OVC120 09/M11 A3005 RMK AO2 T00931112
KAJZ 132215Z AUTO 22006KT 10SM OVC120 10/M11 A3006 RMK AO2 T00961112
KAJZ 132155Z AUTO 22007KT 10SM OVC120 10/M12 A3007 RMK AO2 T00951116
KAJZ 132135Z AUTO 22005KT 10SM OVC110 09/M11 A3007 RMK AO2 T00931115
KAJZ 132115Z AUTO 24004KT 10SM OVC110 09/M11 A3008 RMK AO2 T00861114
KAJZ 132055Z AUTO 27003KT 10SM OVC110 08/M12 A3009 RMK AO2 T00821116
KAJZ 132035Z AUTO 00000KT 10SM OVC110 08/M12 A3011 RMK AO2 T00791116
KAJZ 132015Z AUTO 00000KT 10SM OVC110 08/M12 A3012 RMK AO2 T00751117
KAJZ 131955Z AUTO 00000KT 10SM OVC110 07/M12 A3013 RMK AO2 T00721116
KAJZ 131935Z AUTO 00000KT 10SM OVC120 07/M12 A3015 RMK AO2 T00661116
KAJZ 131915Z AUTO 00000KT 10SM OVC120 06/M12 A3017 RMK AO2 T00591117
KAJZ 131855Z AUTO 00000KT 10SM OVC120 05/M12 A3019 RMK AO2 T00511117
KAJZ 131835Z AUTO 00000KT 10SM OVC120 04/M12 A3021 RMK AO2 T00431120
KAJZ 131815Z AUTO 00000KT 10SM OVC120 04/M12 A3023 RMK AO2 T00381120
KAJZ 131755Z AUTO 11003KT 10SM OVC120 04/M12 A3024 RMK AO2 T00361120 10036 21094
KAJZ 131735Z AUTO 00000KT 10SM SCT120 02/M12 A3025 RMK AO2 T00241120
KAJZ 131715Z AUTO 11003KT 10SM CLR 01/M12 A3027 RMK AO2 T00121116
KAJZ 131655Z AUTO 00000KT 10SM SCT120 M02/M12 A3029 RMK AO2 T10171122
KAJZ 131635Z AUTO 00000KT 10SM CLR M03/M12 A3028 RMK AO2 T10351124
KAJZ 131615Z AUTO 00000KT 10SM CLR M05/M12 A3028 RMK AO2 T10501124
KAJZ 131555Z AUTO 23003KT 10SM CLR M06/M13 A3029 RMK AO2 T10641129
KAJZ 131535Z AUTO 00000KT 10SM CLR M06/M14 A3028 RMK AO2 T10591140
KAJZ 131515Z AUTO 23003KT 10SM CLR M05/M14 A3028 RMK AO2 T10551143
KAJZ 131455Z AUTO 02004KT 10SM CLR M06/M14 A3028 RMK AO2 T10631136
KAJZ 131435Z AUTO 05006KT 10SM CLR M09/M15 A3028 RMK AO2 T10891149
KAJZ 131415Z AUTO 00000KT 10SM CLR M09/M15 A3028 RMK AO2 T10901155
KAJZ 131355Z AUTO 00000KT 10SM CLR M09/M15 A3028 RMK AO2 T10871151
KAJZ 131335Z AUTO 00000KT 10SM CLR M07/M14 A3028 RMK AO2 T10741136
KAJZ 131315Z AUTO 00000KT 10SM CLR M08/M14 A3028 RMK AO2 T10791138
KAJZ 131255Z AUTO 00000KT 10SM CLR M07/M14 A3028 RMK AO2 T10661140
KAJZ 131235Z AUTO 00000KT 10SM CLR M06/M13 A3028 RMK AO2 T10571133
KAJZ 131215Z AUTO 00000KT 10SM CLR M06/M13 A3028 RMK AO2 T10591135
KAJZ 131155Z AUTO 00000KT 10SM CLR M05/M14 A3027 RMK AO2 T10551137 11010 21059
KAJZ 131135Z AUTO 00000KT 10SM CLR M06/M14 A3028 RMK AO2 T10591142
KAJZ 131115Z AUTO 09003KT 10SM CLR M05/M14 A3028 RMK AO2 T10551136
KAJZ 131055Z AUTO 10004KT 10SM CLR M05/M14 A3029 RMK AO2 T10531137
KAJZ 131035Z AUTO 05005KT 10SM CLR M05/M14 A3030 RMK AO2 T10531137
KAJZ 131015Z AUTO 00000KT 10SM CLR M05/M13 A3030 RMK AO2 T10461130
KAJZ 130955Z AUTO 00000KT 10SM CLR M05/M13 A3031 RMK AO2 T10541134
KAJZ 130935Z AUTO 00000KT 10SM CLR M04/M13 A3031 RMK AO2 T10441134
KAJZ 130915Z AUTO 00000KT 10SM CLR M04/M13 A3031 RMK AO2 T10441134
KAJZ 130855Z AUTO 00000KT 10SM CLR M05/M14 A3032 RMK AO2 T10481144
KAJZ 130835Z AUTO 05003KT 10SM CLR M04/M14 A3031 RMK AO2 T10391136
KAJZ 130815Z AUTO 00000KT 10SM CLR M05/M14 A3032 RMK AO2 T10481144
KAJZ 130755Z AUTO 00000KT 10SM CLR M03/M13 A3032 RMK AO2 T10341135
KAJZ 130735Z AUTO 00000KT 10SM CLR M04/M14 A3032 RMK AO2 T10411141
KAJZ 130715Z AUTO 00000KT 10SM CLR M01/M13 A3032 RMK AO2 T10141132
KAJZ 130655Z AUTO 00000KT 10SM CLR M02/M13 A3033 RMK AO2 T10221135
KAJZ 130635Z AUTO 00000KT 10SM CLR M03/M14 A3033 RMK AO2 T10271136
KAJZ 130615Z AUTO 00000KT 10SM CLR M02/M14 A3034 RMK AO2 T10221137
KAJZ 130555Z AUTO 00000KT 10SM CLR M02/M14 A3034 RMK AO2 T10171138 10095 21017 401251092
KAJZ 130535Z AUTO 00000KT 10SM CLR M01/M14 A3035 RMK AO2 T10081137
KAJZ 130515Z AUTO 00000KT 10SM CLR 00/M13 A3034 RMK AO2 T10011133
KAJZ 130455Z AUTO 00000KT 10SM CLR 00/M14 A3035 RMK AO2 T10041139
KAJZ 130435Z AUTO 07006KT 10SM CLR 00/M14 A3035 RMK AO2 T00021140
KAJZ 130415Z AUTO 00000KT 10SM CLR 00/M14 A3034 RMK AO2 T10051145
KAJZ 130355Z AUTO 00000KT 10SM CLR 02/M14 A3034 RMK AO2 T00151136
KAJZ 130335Z AUTO 00000KT 10SM CLR 00/M14 A3034 RMK AO2 T00021141
KAJZ 130315Z AUTO 08004KT 10SM CLR 01/M15 A3035 RMK AO2 T00051149
KAJZ 130255Z AUTO 00000KT 10SM CLR 03/M14 A3035 RMK AO2 T00251141
KAJZ 130235Z AUTO 00000KT 10SM CLR 04/M14 A3035 RMK AO2 T00401136
KAJZ 130215Z AUTO 00000KT 10SM CLR 03/M14 A3035 RMK AO2 T00271137
KAJZ 130155Z AUTO 00000KT 10SM CLR 04/M14 A3035 RMK AO2 T00391139
KAJZ 130135Z AUTO 02003KT 10SM CLR 03/M14 A3035 RMK AO2 T00341140
KAJZ 130115Z AUTO 01005KT 10SM CLR 04/M13 A3035 RMK AO2 T00411135
KAJZ 130055Z AUTO 01004KT 10SM CLR 05/M14 A3034 RMK AO2 T00491139
KAJZ 130035Z AUTO 10003KT 10SM CLR 06/M13 A3034 RMK AO2 T00621134
KAJZ 130015Z AUTO 00000KT 10SM CLR 09/M13 A3035 RMK AO2 T00891134
KAJZ 122355Z AUTO 19003KT 10SM CLR 10/M13 A3034 RMK AO2 T00951135 10125 20034
KAJZ 122335Z AUTO 22004KT 10SM CLR 11/M13 A3035 RMK AO2 T01101135
KAJZ 122315Z AUTO 00000KT 10SM CLR 12/M13 A3035 RMK AO2 T01201131
KAJZ 122255Z AUTO 22003KT 10SM CLR 13/M13 A3035 RMK AO2 T01251131
KAJZ 122235Z AUTO 25003KT 10SM CLR 13/M13 A3036 RMK AO2 T01251135
KAJZ 122215Z AUTO 25003KT 10SM CLR 12/M13 A3037 RMK AO2 T01241135
KAJZ 122155Z AUTO 00000KT 10SM CLR 12/M13 A3038 RMK AO2 T01201131
KAJZ 122135Z AUTO 26003KT 10SM CLR 12/M13 A3038 RMK AO2 T01191135
KAJZ 122115Z AUTO 21004KT 10SM CLR 11/M13 A3039 RMK AO2 T01131135
KAJZ 122055Z AUTO 22004KT 10SM CLR 11/M13 A3040 RMK AO2 T01101128
KAJZ 122035Z AUTO 23004KT 10SM CLR 11/M13 A3041 RMK AO2 T01081126
KAJZ 122015Z AUTO 22003KT 10SM CLR 10/M13 A3042 RMK AO2 T00981127
KAJZ 121955Z AUTO 00000KT 10SM CLR 09/M13 A3044 RMK AO2 T00921130
KAJZ 121935Z AUTO 00000KT 10SM CLR 08/M13 A3045 RMK AO2 T00841131
KAJZ 121915Z AUTO 00000KT 10SM CLR 08/M13 A3047 RMK AO2 T00771133
KAJZ 121855Z AUTO 00000KT 10SM CLR 07/M13 A3049 RMK AO2 T00711134
KAJZ 121835Z AUTO 00000KT 10SM CLR 06/M13 A3051 RMK AO2 T00571135
KAJZ 121815Z AUTO 00000KT 10SM CLR 05/M13 A3052 RMK AO2 T00511134
KAJZ 121755Z AUTO 04003KT 10SM CLR 03/M13 A3053 RMK AO2 T00311135 10031 21092
KAJZ 121735Z AUTO 06003KT 10SM CLR 02/M13 A3054 RMK AO2 T00171134
KAJZ 121715Z AUTO 00000KT 10SM CLR 01/M14 A3056 RMK AO2 T00071138
KAJZ 121655Z AUTO 00000KT 10SM CLR M01/M14 A3057 RMK AO2 T10151145
KAJZ 121635Z AUTO 00000KT 10SM CLR M02/M15 A3057 RMK AO2 T10251155
KAJZ 121615Z AUTO 00000KT 10SM CLR M03/M16 A3057 RMK AO2 T10351158
KAJZ 121555Z AUTO 00000KT 10SM CLR M04/M16 A3057 RMK AO2 T10401164
KAJZ 121535Z AUTO 00000KT 10SM CLR M05/M17 A3057 RMK AO2 T10461167
KAJZ 121515Z AUTO 00000KT 10SM CLR M06/M16 A3057 RMK AO2 T10611164
KAJZ 121455Z AUTO 00000KT 10SM CLR M07/M17 A3057 RMK AO2 T10711171
KAJZ 121435Z AUTO 00000KT 10SM CLR M08/M17 A3057 RMK AO2 T10761173
KAJZ 121415Z AUTO 00000KT 10SM CLR M09/M17 A3057 RMK AO2 T10921171